Time;durP1;ratioP1;P1;durP2;ratioP2;P2;SDS_P1;SDS_P2;PMS_P1;PMS_P2;Temp;Humidity;BMP_temperature;BMP_pressure;BME280_temperature;BME280_humidity;BME280_pressure;Samples;Min_cycle;Max_cycle;Signal;HPM_P1;HPM_P2
2023/03/24 00:01:18;;;;;;;3.90;3.20;;;12.80;99.90;;;;;;5074807;28;20184;-70
2023/03/24 00:03:44;;;;;;;3.83;3.20;;;12.80;99.90;;;;;;5074406;28;20176;-72
2023/03/24 00:06:12;;;;;;;3.03;2.73;;;12.80;99.90;;;;;;5074633;28;20572;-71
2023/03/24 00:08:40;;;;;;;2.83;2.60;;;12.80;99.90;;;;;;5074474;28;20255;-71
2023/03/24 00:11:08;;;;;;;3.30;2.93;;;12.80;99.90;;;;;;5074646;28;20247;-71
2023/03/24 00:13:37;;;;;;;3.90;2.87;;;12.80;99.90;;;;;;5074468;28;20214;-71
2023/03/24 00:16:13;;;;;;;2.87;2.60;;;12.90;99.90;;;;;;5053170;28;20228;-72
2023/03/24 00:18:39;;;;;;;4.10;3.03;;;12.80;99.90;;;;;;5054302;28;20173;-72
2023/03/24 00:21:07;;;;;;;4.03;2.73;;;12.90;99.90;;;;;;5054362;28;20645;-72
2023/03/24 00:23:34;;;;;;;3.03;2.60;;;12.80;99.90;;;;;;5054324;28;20637;-72
2023/03/24 00:26:02;;;;;;;2.70;2.50;;;12.80;99.90;;;;;;5052988;28;20679;-72
2023/03/24 00:28:33;;;;;;;3.67;2.53;;;12.90;99.90;;;;;;5053489;28;20177;-72
2023/03/24 00:31:00;;;;;;;3.50;2.73;;;12.90;99.90;;;;;;5054140;28;20220;-72
2023/03/24 00:33:27;;;;;;;2.90;2.27;;;12.90;99.90;;;;;;5053858;28;20181;-72
2023/03/24 00:35:53;;;;;;;3.10;2.90;;;13.00;99.90;;;;;;5052829;28;20173;-72
2023/03/24 00:38:19;;;;;;;3.30;2.53;;;13.00;99.90;;;;;;5053930;28;20199;-71
2023/03/24 00:40:45;;;;;;;3.13;2.70;;;13.00;99.90;;;;;;5054000;28;20180;-70
2023/03/24 00:43:12;;;;;;;3.13;2.70;;;13.10;99.90;;;;;;5054113;28;20252;-71
2023/03/24 00:45:44;;;;;;;2.63;2.40;;;13.10;99.90;;;;;;5053902;28;20209;-71
2023/03/24 00:48:12;;;;;;;2.70;2.50;;;13.10;99.90;;;;;;5053646;28;20169;-70
2023/03/24 00:50:38;;;;;;;3.40;2.73;;;13.10;99.90;;;;;;5053868;28;20237;-70
2023/03/24 00:53:04;;;;;;;2.70;2.50;;;13.10;99.90;;;;;;5053722;28;20172;-70
2023/03/24 00:55:31;;;;;;;3.50;2.43;;;13.20;99.90;;;;;;5053693;28;20257;-71
2023/03/24 00:57:56;;;;;;;2.53;2.40;;;13.20;99.90;;;;;;5053759;28;20275;-71
2023/03/24 01:00:25;;;;;;;2.80;2.60;;;13.10;99.90;;;;;;5053683;28;20272;-72
2023/03/24 01:02:53;;;;;;;4.73;2.53;;;13.20;99.90;;;;;;5053384;28;20667;-72
2023/03/24 01:05:29;;;;;;;2.80;2.50;;;13.20;99.90;;;;;;5053574;28;20165;-71
2023/03/24 01:08:02;;;;;;;3.30;2.23;;;13.20;99.90;;;;;;5053992;28;20157;-71
2023/03/24 01:10:29;;;;;;;2.57;2.37;;;13.20;99.90;;;;;;5053530;28;20660;-72
2023/03/24 01:12:57;;;;;;;2.60;2.37;;;13.20;99.90;;;;;;5053492;28;20173;-72
2023/03/24 01:15:35;;;;;;;2.70;2.50;;;13.20;99.90;;;;;;5053391;28;20177;-70
2023/03/24 01:18:01;;;;;;;3.03;2.57;;;13.30;99.90;;;;;;5072707;28;20220;-71
2023/03/24 01:20:31;;;;;;;2.83;2.40;;;13.30;99.90;;;;;;5073169;28;20601;-71
2023/03/24 01:23:01;;;;;;;2.47;2.27;;;13.40;99.90;;;;;;5073437;28;20168;-71
2023/03/24 01:25:28;;;;;;;4.13;2.53;;;13.50;99.90;;;;;;5073349;28;20176;-71
2023/03/24 01:27:53;;;;;;;2.27;2.13;;;13.50;99.90;;;;;;5073316;28;20208;-70
2023/03/24 01:30:22;;;;;;;3.30;2.07;;;13.50;99.90;;;;;;5073255;28;20239;-71
2023/03/24 01:32:49;;;;;;;2.80;2.50;;;13.50;99.90;;;;;;5072916;28;20251;-71
2023/03/24 01:35:15;;;;;;;2.70;2.50;;;13.70;99.90;;;;;;5055191;28;20196;-71
2023/03/24 01:37:41;;;;;;;3.00;2.60;;;13.70;99.90;;;;;;5073193;28;20226;-71
2023/03/24 01:40:11;;;;;;;5.27;2.67;;;13.70;99.90;;;;;;5072831;28;20168;-71
2023/03/24 01:42:38;;;;;;;2.93;2.30;;;13.80;99.90;;;;;;5055242;28;20184;-71
2023/03/24 01:45:51;;;;;;;2.67;2.47;;;13.90;99.90;;;;;;5072785;28;20176;-70
2023/03/24 01:48:46;;;;;;;2.67;2.47;;;13.90;99.90;;;;;;5055352;28;20212;-70
2023/03/24 01:51:23;;;;;;;3.03;2.50;;;13.90;99.90;;;;;;5072438;28;20216;-70
2023/03/24 01:54:01;;;;;;;2.80;2.60;;;13.90;99.90;;;;;;5073025;28;20176;-71
2023/03/24 01:56:36;;;;;;;2.93;2.73;;;13.90;99.90;;;;;;5072939;28;20730;-71
2023/03/24 01:59:12;;;;;;;2.90;2.70;;;13.90;99.90;;;;;;5073275;28;20183;-72
2023/03/24 02:01:38;;;;;;;4.37;3.10;;;13.80;99.90;;;;;;5072522;28;20229;-71
2023/03/24 02:04:06;;;;;;;3.30;3.00;;;13.70;99.90;;;;;;5072782;28;20176;-70
2023/03/24 02:06:39;;;;;;;2.70;2.50;;;13.70;99.90;;;;;;5072699;28;20177;-71
2023/03/24 02:09:07;;;;;;;5.13;3.40;;;13.70;99.90;;;;;;5072941;28;20180;-71
2023/03/24 02:11:35;;;;;;;2.47;2.27;;;13.70;99.90;;;;;;5072664;28;20211;-72
2023/03/24 02:14:02;;;;;;;2.10;2.00;;;13.70;99.90;;;;;;5072710;28;20180;-70
2023/03/24 02:16:45;;;;;;;2.73;1.90;;;13.80;99.90;;;;;;5072372;28;20216;-69
2023/03/24 02:19:11;;;;;;;4.17;2.27;;;13.70;99.90;;;;;;5072691;28;20218;-70
2023/03/24 02:22:06;;;;;;;9.37;2.10;;;13.50;99.90;;;;;;5072671;28;20624;-70
2023/03/24 02:25:09;;;;;;;3.37;1.50;;;13.30;99.90;;;;;;5072887;28;20176;-71
2023/03/24 02:28:14;;;;;;;4.97;2.40;;;13.10;99.90;;;;;;5072747;28;20624;-70
2023/03/24 02:30:46;;;;;;;2.50;1.20;;;13.00;99.90;;;;;;5072457;28;20204;-71
2023/03/24 02:33:23;;;;;;;1.40;1.20;;;12.80;99.90;;;;;;5072667;28;20203;-70
2023/03/24 02:36:20;;;;;;;3.33;1.40;;;12.60;99.90;;;;;;5072613;28;20180;-70
2023/03/24 02:38:52;;;;;;;2.83;1.23;;;12.50;99.90;;;;;;5072738;28;20172;-71
2023/03/24 02:41:33;;;;;;;1.23;0.90;;;12.40;99.90;;;;;;5054727;28;20287;-70
2023/03/24 02:44:05;;;;;;;2.83;1.33;;;12.30;99.90;;;;;;5072407;28;20161;-70
2023/03/24 02:46:45;;;;;;;4.23;1.40;;;12.20;99.90;;;;;;5072418;28;20180;-70
2023/03/24 02:49:39;;;;;;;3.17;1.40;;;12.20;99.90;;;;;;5072530;28;20176;-70
2023/03/24 02:52:27;;;;;;;2.43;1.30;;;12.20;99.90;;;;;;5073490;28;20254;-71
2023/03/24 02:55:01;;;;;;;2.30;0.90;;;12.10;99.90;;;;;;5076070;28;20172;-71
2023/03/24 02:57:35;;;;;;;2.37;1.27;;;12.00;99.90;;;;;;5075464;28;20208;-71
2023/03/24 03:00:08;;;;;;;3.70;1.20;;;12.00;99.90;;;;;;5076154;28;20183;-71
2023/03/24 03:02:40;;;;;;;1.90;0.90;;;11.80;99.90;;;;;;5075955;28;20157;-71
2023/03/24 03:05:12;;;;;;;4.87;1.67;;;11.80;99.90;;;;;;5075875;28;20527;-71
2023/03/24 03:07:40;;;;;;;3.93;1.20;;;11.70;99.90;;;;;;5075729;28;20161;-71
2023/03/24 03:10:08;;;;;;;4.40;1.40;;;11.70;99.90;;;;;;5075824;28;20204;-70
2023/03/24 03:12:37;;;;;;;4.37;1.30;;;11.60;99.90;;;;;;5075337;28;20247;-71
2023/03/24 03:15:27;;;;;;;4.23;1.67;;;11.60;99.90;;;;;;5075718;28;20615;-71
2023/03/24 03:18:06;;;;;;;3.30;1.20;;;11.60;99.90;;;;;;5074767;28;20224;-71
2023/03/24 03:20:37;;;;;;;1.57;1.47;;;11.60;99.90;;;;;;5075634;28;20172;-71
2023/03/24 03:23:13;;;;;;;4.07;1.67;;;11.50;99.20;;;;;;5075531;28;20164;-70
2023/03/24 03:25:49;;;;;;;5.30;1.53;;;11.50;97.60;;;;;;5075527;28;20172;-72
2023/03/24 03:28:20;;;;;;;2.50;1.30;;;11.50;98.80;;;;;;5075165;28;20179;-71
2023/03/24 03:30:55;;;;;;;7.07;1.67;;;11.40;99.90;;;;;;5075290;28;20671;-71
2023/03/24 03:33:25;;;;;;;5.03;1.47;;;11.40;99.90;;;;;;5075486;28;20213;-71
2023/03/24 03:36:07;;;;;;;6.13;1.50;;;11.40;99.90;;;;;;5075291;28;20180;-71
2023/03/24 03:38:46;;;;;;;4.13;1.50;;;11.40;99.90;;;;;;5075410;28;20172;-70
2023/03/24 03:41:12;;;;;;;4.10;1.70;;;11.40;99.90;;;;;;5074691;28;20171;-71
2023/03/24 03:43:37;;;;;;;5.03;1.57;;;11.50;99.90;;;;;;5075136;28;20168;-70
2023/03/24 03:46:05;;;;;;;5.90;1.40;;;11.60;99.90;;;;;;5056847;28;20214;-71
2023/03/24 03:48:32;;;;;;;5.13;1.70;;;11.60;99.90;;;;;;5075066;28;20204;-71
2023/03/24 03:50:58;;;;;;;5.83;1.30;;;11.60;99.90;;;;;;5074938;28;20216;-70
2023/03/24 03:53:35;;;;;;;6.23;1.50;;;11.60;99.90;;;;;;5074948;28;20517;-70
2023/03/24 03:56:01;;;;;;;4.27;1.73;;;11.70;99.90;;;;;;5074358;28;20241;-70
2023/03/24 03:58:27;;;;;;;5.57;1.50;;;11.70;99.90;;;;;;5074798;28;20174;-71
2023/03/24 04:00:54;;;;;;;5.77;1.80;;;11.60;99.90;;;;;;5074806;28;20180;-71
2023/03/24 04:03:35;;;;;;;7.43;1.50;;;11.50;99.90;;;;;;5074467;28;20532;-72
2023/03/24 04:06:18;;;;;;;5.03;1.77;;;11.50;99.90;;;;;;5074432;28;20182;-72
2023/03/24 04:09:16;;;;;;;6.33;1.87;;;11.40;99.90;;;;;;5074632;28;20703;-72
2023/03/24 04:12:13;;;;;;;7.37;1.87;;;11.50;99.90;;;;;;5074209;28;20208;-70
2023/03/24 04:15:09;;;;;;;7.10;2.33;;;11.50;99.90;;;;;;5074198;28;20226;-70
2023/03/24 04:18:04;;;;;;;5.50;1.90;;;11.50;99.90;;;;;;5073901;28;20250;-71
2023/03/24 04:20:45;;;;;;;5.73;2.10;;;11.60;99.90;;;;;;5074149;28;20208;-72
2023/03/24 04:23:45;;;;;;;7.13;2.20;;;11.60;99.90;;;;;;5074071;28;20170;-70
2023/03/24 04:26:33;;;;;;;7.33;2.00;;;11.60;99.90;;;;;;5073869;28;20176;-72
2023/03/24 04:29:16;;;;;;;7.03;2.17;;;11.50;99.90;;;;;;5074324;28;20195;-72
2023/03/24 04:31:52;;;;;;;3.67;2.00;;;11.40;99.90;;;;;;5073872;28;20251;-71
2023/03/24 04:34:38;;;;;;;6.20;2.20;;;11.40;99.90;;;;;;5074370;28;20222;-71
2023/03/24 04:37:16;;;;;;;8.87;2.00;;;11.50;99.90;;;;;;5073642;28;20513;-70
2023/03/24 04:39:45;;;;;;;7.20;1.90;;;11.50;99.90;;;;;;5073560;28;20274;-71
2023/03/24 04:42:19;;;;;;;9.80;2.10;;;11.60;98.70;;;;;;5073578;28;20257;-68
2023/03/24 04:44:50;;;;;;;8.20;3.07;;;11.50;95.80;;;;;;5073959;28;20322;-70
2023/03/24 04:47:19;;;;;;;7.60;2.33;;;11.50;97.50;;;;;;5073654;28;20172;-71
2023/03/24 04:49:45;;;;;;;9.17;2.60;;;11.50;98.40;;;;;;5073608;28;20242;-71
2023/03/24 04:52:10;;;;;;;12.93;2.30;;;11.50;98.20;;;;;;5073344;28;20238;-71
2023/03/24 04:54:36;;;;;;;8.93;2.43;;;11.40;97.10;;;;;;5073055;28;20599;-70
2023/03/24 04:57:01;;;;;;;8.37;2.37;;;11.50;96.40;;;;;;5073080;28;20192;-70
2023/03/24 04:59:29;;;;;;;11.00;2.70;;;11.40;95.90;;;;;;5073178;28;20164;-70
2023/03/24 05:01:55;;;;;;;11.33;2.77;;;11.30;95.50;;;;;;5073350;28;20164;-71
2023/03/24 05:04:23;;;;;;;11.03;2.50;;;11.20;97.90;;;;;;5072623;28;20174;-71
2023/03/24 05:06:49;;;;;;;10.83;2.70;;;11.10;99.90;;;;;;5073186;28;20178;-71
2023/03/24 05:09:22;;;;;;;10.40;2.97;;;11.00;99.90;;;;;;5072652;28;20164;-70
2023/03/24 05:11:49;;;;;;;7.77;2.50;;;11.00;99.90;;;;;;5072459;28;20266;-71
2023/03/24 05:14:15;;;;;;;10.33;3.17;;;10.90;99.90;;;;;;5072692;28;20169;-71
2023/03/24 05:16:41;;;;;;;13.50;3.17;;;10.90;99.90;;;;;;5072805;28;20221;-72
2023/03/24 05:19:07;;;;;;;9.73;3.03;;;10.80;99.90;;;;;;5073251;28;20639;-70
2023/03/24 05:21:33;;;;;;;10.17;3.00;;;10.80;99.90;;;;;;5072858;28;20180;-72
2023/03/24 05:23:59;;;;;;;13.33;3.30;;;10.70;99.90;;;;;;5072672;28;20705;-71
2023/03/24 05:26:28;;;;;;;8.67;2.73;;;10.60;99.90;;;;;;5072977;28;20177;-71
2023/03/24 05:28:54;;;;;;;11.77;3.17;;;10.60;99.90;;;;;;5072550;28;20289;-70
2023/03/24 05:31:19;;;;;;;9.13;3.20;;;10.60;99.90;;;;;;5072717;28;20687;-71
2023/03/24 05:33:45;;;;;;;7.67;3.10;;;10.60;99.90;;;;;;5072801;28;20164;-70
2023/03/24 05:36:11;;;;;;;12.47;3.00;;;10.50;99.90;;;;;;5073001;28;20204;-71
2023/03/24 05:38:37;;;;;;;13.00;3.07;;;10.50;99.90;;;;;;5071692;28;20647;-71
2023/03/24 05:41:03;;;;;;;11.67;2.87;;;10.50;99.90;;;;;;5072738;28;20628;-71
2023/03/24 05:43:28;;;;;;;11.67;3.10;;;10.50;99.90;;;;;;5072071;28;20522;-70
2023/03/24 05:45:55;;;;;;;8.20;2.83;;;10.50;99.90;;;;;;5072404;28;20180;-69
2023/03/24 05:48:21;;;;;;;10.93;2.90;;;10.50;99.90;;;;;;5072663;28;20180;-70
2023/03/24 05:50:47;;;;;;;10.03;2.90;;;10.40;99.90;;;;;;5072172;28;20192;-70
2023/03/24 05:53:12;;;;;;;9.40;2.73;;;10.50;99.90;;;;;;5071382;28;20157;-71
2023/03/24 05:55:39;;;;;;;9.20;2.87;;;10.40;99.90;;;;;;5072041;28;20172;-71
2023/03/24 05:58:05;;;;;;;11.03;2.83;;;10.40;99.90;;;;;;5072288;28;20164;-70
2023/03/24 06:00:32;;;;;;;8.53;2.80;;;10.40;99.90;;;;;;5072286;28;20540;-71
2023/03/24 06:02:58;;;;;;;12.23;3.00;;;10.50;99.90;;;;;;5072356;28;20168;-71
2023/03/24 06:05:25;;;;;;;10.90;2.73;;;10.60;99.90;;;;;;5071837;28;20180;-70
2023/03/24 06:07:57;;;;;;;15.20;3.27;;;10.80;99.90;;;;;;5071896;28;20187;-70
2023/03/24 06:10:25;;;;;;;12.73;2.83;;;10.90;99.90;;;;;;5071890;28;20203;-70
2023/03/24 06:12:51;;;;;;;10.47;3.00;;;11.00;99.90;;;;;;5071628;28;20172;-73
2023/03/24 06:15:17;;;;;;;11.73;2.70;;;11.30;99.90;;;;;;5072481;28;20230;-71
2023/03/24 06:17:44;;;;;;;10.27;2.80;;;11.70;99.40;;;;;;5071541;28;20216;-71
2023/03/24 06:20:14;;;;;;;7.57;2.97;;;12.10;85.30;;;;;;5071860;28;20177;-70
2023/03/24 06:22:43;;;;;;;12.07;2.90;;;12.20;66.30;;;;;;5053998;28;20196;-70
2023/03/24 06:25:09;;;;;;;7.63;2.67;;;12.10;60.50;;;;;;5071578;28;20260;-70
2023/03/24 06:27:35;;;;;;;11.57;3.10;;;12.00;67.70;;;;;;5074814;28;20169;-71
2023/03/24 06:30:02;;;;;;;8.77;2.33;;;11.90;80.80;;;;;;5075756;28;20604;-70
2023/03/24 06:32:27;;;;;;;9.87;3.30;;;11.90;75.50;;;;;;5075556;28;20183;-72
2023/03/24 06:34:53;;;;;;;7.70;2.57;;;11.70;88.60;;;;;;5057558;28;20173;-71
2023/03/24 06:37:22;;;;;;;13.13;3.03;;;11.60;90.10;;;;;;5075512;28;20628;-70
2023/03/24 06:39:48;;;;;;;9.27;2.60;;;11.50;94.20;;;;;;5075662;28;20168;-71
2023/03/24 06:42:14;;;;;;;16.90;2.73;;;11.40;96.50;;;;;;5074844;28;20292;-71
2023/03/24 06:44:40;;;;;;;7.07;2.60;;;11.50;95.40;;;;;;5074682;28;20595;-72
2023/03/24 06:47:06;;;;;;;11.23;2.73;;;11.80;91.70;;;;;;5075449;28;20176;-71
2023/03/24 06:49:33;;;;;;;12.97;2.87;;;12.20;72.40;;;;;;5074592;28;20309;-72
2023/03/24 06:52:00;;;;;;;12.40;3.07;;;12.70;59.10;;;;;;5075056;28;20268;-72
2023/03/24 06:54:26;;;;;;;9.83;3.07;;;13.20;46.20;;;;;;5074912;28;20192;-73
2023/03/24 06:56:52;;;;;;;12.47;2.97;;;14.00;5.90;;;;;;5074590;28;20207;-72
2023/03/24 06:59:22;;;;;;;9.87;2.60;;;14.70;1.00;;;;;;5074830;28;20584;-71
2023/03/24 07:01:49;;;;;;;10.70;2.63;;;15.40;1.00;;;;;;5074597;28;20200;-73
2023/03/24 07:04:14;;;;;;;14.20;3.10;;;15.00;1.00;;;;;;5074209;28;20180;-72
2023/03/24 07:06:41;;;;;;;5.60;2.30;;;14.40;1.00;;;;;;5074661;28;20194;-71
2023/03/24 07:09:07;;;;;;;9.30;2.80;;;14.30;1.00;;;;;;5074517;28;20181;-72
2023/03/24 07:11:32;;;;;;;6.97;2.77;;;14.10;1.00;;;;;;5074355;28;20635;-72
2023/03/24 07:13:58;;;;;;;9.60;2.60;;;14.10;1.00;;;;;;5074460;28;20207;-73
2023/03/24 07:16:23;;;;;;;10.03;3.17;;;14.00;4.00;;;;;;5074211;28;20227;-75
2023/03/24 07:18:49;;;;;;;10.17;2.70;;;15.10;1.00;;;;;;5074766;28;20169;-74
2023/03/24 07:21:15;;;;;;;9.57;3.20;;;16.10;1.00;;;;;;5074253;28;20173;-77
2023/03/24 07:23:41;;;;;;;7.17;2.47;;;17.00;1.00;;;;;;5074575;28;20176;-74
2023/03/24 07:26:06;;;;;;;8.10;2.45;;;17.60;1.00;;;;;;5074090;28;20314;-74
2023/03/24 07:28:32;;;;;;;4.40;2.55;;;18.60;99.90;;;;;;5074607;28;20237;-75
2023/03/24 07:31:02;;;;;;;7.35;2.70;;;19.00;1.00;;;;;;5074411;28;20642;-75
2023/03/24 07:33:27;;;;;;;5.40;2.25;;;18.90;1.00;;;;;;5074255;28;20172;-73
2023/03/24 07:35:55;;;;;;;9.93;2.38;;;18.40;1.00;;;;;;5073478;28;20200;-72
2023/03/24 07:38:20;;;;;;;10.23;2.70;;;17.40;1.00;;;;;;5073689;28;20168;-72
2023/03/24 07:40:46;;;;;;;7.90;2.53;;;16.60;1.00;;;;;;5073813;28;20188;-72
2023/03/24 07:43:13;;;;;;;12.02;2.60;;;16.10;1.00;;;;;;5073685;28;20173;-72
2023/03/24 07:45:38;;;;;;;8.03;2.70;;;15.20;1.00;;;;;;5073488;28;20176;-71
2023/03/24 07:48:04;;;;;;;10.50;3.37;;;14.90;1.00;;;;;;5073461;28;20226;-72
2023/03/24 07:50:31;;;;;;;8.13;2.73;;;14.70;1.00;;;;;;5073325;28;20240;-73
2023/03/24 07:52:57;;;;;;;10.07;2.37;;;14.20;1.00;;;;;;5073711;28;20256;-73
2023/03/24 07:55:23;;;;;;;9.93;2.60;;;14.20;1.00;;;;;;5073266;28;20172;-72
2023/03/24 07:57:49;;;;;;;5.80;2.40;;;15.20;1.00;;;;;;5073729;28;20667;-72
2023/03/24 08:00:16;;;;;;;6.83;2.57;;;16.10;1.00;;;;;;5073419;28;20263;-72
2023/03/24 08:02:44;;;;;;;8.57;2.53;;;16.60;1.00;;;;;;5073658;28;20562;-75
2023/03/24 08:05:13;;;;;;;7.10;2.70;;;17.10;1.00;;;;;;5055457;28;20172;-74
2023/03/24 08:07:53;;;;;;;10.10;2.80;;;17.50;1.00;;;;;;5073712;28;20302;-72
2023/03/24 08:10:21;;;;;;;6.05;2.42;;;18.70;1.00;;;;;;5073911;28;20196;-74
2023/03/24 08:12:47;;;;;;;5.72;2.42;;;20.30;99.90;;;;;;5073261;28;20268;-74
2023/03/24 08:15:13;;;;;;;6.72;2.63;;;20.60;99.90;;;;;;5073352;28;20185;-74
2023/03/24 08:17:40;;;;;;;7.60;2.40;;;21.00;1.00;;;;;;5073245;28;20234;-74
2023/03/24 08:20:08;;;;;;;7.72;2.50;;;21.10;1.00;;;;;;5073695;28;20168;-73
2023/03/24 08:22:35;;;;;;;6.40;2.17;;;21.10;99.90;;;;;;5073963;28;20183;-73
2023/03/24 08:25:01;;;;;;;6.75;2.55;;;21.10;1.00;;;;;;5073421;28;20697;-73
2023/03/24 08:27:26;;;;;;;8.73;2.67;;;21.30;99.90;;;;;;5073435;28;20176;-74
2023/03/24 08:29:52;;;;;;;4.75;2.40;;;21.40;1.00;;;;;;5073752;28;20231;-73
2023/03/24 08:32:17;;;;;;;6.15;2.40;;;21.80;99.90;;;;;;5073483;28;20168;-74
2023/03/24 08:34:43;;;;;;;5.95;2.33;;;21.50;1.00;;;;;;5055222;28;20604;-73
2023/03/24 08:37:10;;;;;;;6.07;2.47;;;21.30;99.90;;;;;;5073068;28;20173;-73
2023/03/24 08:39:36;;;;;;;6.47;2.33;;;20.40;1.00;;;;;;5073274;28;20161;-74
2023/03/24 08:42:02;;;;;;;6.20;2.20;;;19.90;1.00;;;;;;5072910;28;20176;-74
2023/03/24 08:44:28;;;;;;;4.07;1.85;;;20.10;1.00;;;;;;5073322;28;20681;-74
2023/03/24 08:46:54;;;;;;;8.27;2.80;;;19.60;1.00;;;;;;5073124;28;20636;-75
2023/03/24 08:49:20;;;;;;;6.22;2.40;;;19.90;1.00;;;;;;5072397;28;20173;-74
2023/03/24 08:51:46;;;;;;;7.25;2.80;;;20.70;99.90;;;;;;5072246;28;20212;-77
2023/03/24 08:54:12;;;;;;;10.50;3.70;;;20.30;1.00;;;;;;5072791;28;20529;-74
2023/03/24 08:56:38;;;;;;;7.45;2.60;;;20.50;1.00;;;;;;5066343;28;20274;-74
2023/03/24 08:59:05;;;;;;;6.00;2.75;;;20.20;1.00;;;;;;5069754;28;20180;-73
2023/03/24 09:01:32;;;;;;;5.72;2.60;;;20.40;1.00;;;;;;5073167;28;20183;-74
2023/03/24 09:03:58;;;;;;;5.55;2.20;;;19.90;1.00;;;;;;5053348;28;20184;-72
2023/03/24 09:06:26;;;;;;;11.70;2.72;;;20.00;99.90;;;;;;5072465;28;20574;-71
2023/03/24 09:08:52;;;;;;;6.93;2.40;;;19.10;1.00;;;;;;5072601;28;20252;-73
2023/03/24 09:11:20;;;;;;;7.13;2.38;;;18.10;1.00;;;;;;5072583;28;20200;-73
2023/03/24 09:13:46;;;;;;;13.10;2.50;;;17.30;99.90;;;;;;5054643;28;20169;-71
2023/03/24 09:16:12;;;;;;;6.35;2.30;;;16.20;1.00;;;;;;5071458;28;20232;-72
2023/03/24 09:18:37;;;;;;;6.20;2.05;;;16.40;1.00;;;;;;5072141;28;20169;-71
2023/03/24 09:21:04;;;;;;;7.32;2.67;;;16.60;1.00;;;;;;5072631;28;20226;-74
2023/03/24 09:23:30;;;;;;;7.82;2.33;;;17.10;1.00;;;;;;5067054;28;20177;-76
2023/03/24 09:25:56;;;;;;;7.95;2.58;;;17.30;99.90;;;;;;5034377;28;20176;-78
2023/03/24 09:28:23;;;;;;;7.00;2.47;;;17.80;1.00;;;;;;5067551;28;20180;-75
2023/03/24 09:30:48;;;;;;;6.80;2.45;;;17.70;1.00;;;;;;5071920;28;20220;-73
2023/03/24 09:33:14;;;;;;;5.30;2.30;;;17.60;99.90;;;;;;5071836;28;20161;-75
2023/03/24 09:35:40;;;;;;;5.40;2.13;;;18.30;99.90;;;;;;5071580;28;20187;-75
2023/03/24 09:38:07;;;;;;;7.97;1.98;;;18.80;99.90;;;;;;5072025;28;20236;-76
2023/03/24 09:40:36;;;;;;;7.10;2.20;;;19.70;1.00;;;;;;5072492;28;20187;-77
2023/03/24 09:43:22;;;;;;;6.00;2.30;;;19.70;1.00;;;;;;5071612;28;20165;-76
2023/03/24 09:45:51;;;;;;;12.35;2.85;;;19.50;1.00;;;;;;5071773;28;20184;-74
2023/03/24 09:48:56;;;;;;;11.25;2.55;;;19.40;92.70;;;;;;5071787;28;20164;-75
2023/03/24 09:51:34;;;;;;;6.72;2.40;;;18.20;99.90;;;;;;5029822;28;20675;-75
2023/03/24 09:54:11;;;;;;;7.80;2.25;;;17.60;99.90;;;;;;5029733;28;20170;-76
2023/03/24 09:56:40;;;;;;;9.10;2.30;;;16.90;99.90;;;;;;5029804;28;20238;-76
2023/03/24 09:59:20;;;;;;;6.47;2.10;;;16.30;1.00;;;;;;5029269;28;20270;-77
2023/03/24 10:01:47;;;;;;;6.25;2.20;;;16.80;99.90;;;;;;5031714;28;20227;-77
2023/03/24 10:04:19;;;;;;;5.00;1.98;;;17.00;1.00;;;;;;5034379;28;20174;-75
2023/03/24 10:06:47;;;;;;;6.82;2.38;;;16.80;99.90;;;;;;5033690;28;20182;-75
2023/03/24 10:09:28;;;;;;;4.45;1.92;;;16.50;99.90;;;;;;5033756;28;20189;-75
2023/03/24 10:12:12;;;;;;;8.27;2.50;;;16.40;99.90;;;;;;5034130;28;20209;-75
2023/03/24 10:14:40;;;;;;;6.75;2.17;;;16.50;99.90;;;;;;5033661;28;20223;-74
2023/03/24 10:17:38;;;;;;;11.73;2.63;;;16.30;1.00;;;;;;5033531;28;20740;-74
2023/03/24 10:20:18;;;;;;;11.52;2.70;;;16.30;1.00;;;;;;5034249;28;20637;-75
2023/03/24 10:23:09;;;;;;;8.50;2.80;;;16.60;1.00;;;;;;5035387;28;20188;-76
2023/03/24 10:26:00;;;;;;;6.20;2.38;;;17.10;99.90;;;;;;5034789;28;20570;-76
2023/03/24 10:28:46;;;;;;;8.93;2.50;;;17.30;99.90;;;;;;5036463;28;20637;-80
2023/03/24 10:31:15;;;;;;;7.10;1.98;;;18.70;1.00;;;;;;5035552;28;20715;-74
2023/03/24 10:33:43;;;;;;;8.15;2.20;;;18.80;1.00;;;;;;5054771;28;20200;-73
2023/03/24 10:36:17;;;;;;;7.43;2.28;;;18.40;99.90;;;;;;5055302;28;20195;-73
2023/03/24 10:38:43;;;;;;;5.90;2.17;;;18.20;99.90;;;;;;5055348;28;20180;-72
2023/03/24 10:41:18;;;;;;;7.35;2.47;;;19.00;33.00;;;;;;5055246;28;20173;-74
2023/03/24 10:43:44;;;;;;;5.63;2.45;;;19.40;99.90;;;;;;5055263;28;20238;-73
2023/03/24 10:46:15;;;;;;;4.95;2.38;;;19.60;1.00;;;;;;5055263;28;20180;-73
2023/03/24 10:48:43;;;;;;;6.05;2.40;;;19.70;99.90;;;;;;5054725;28;20177;-71
2023/03/24 10:51:18;;;;;;;6.90;2.45;;;18.40;13.90;;;;;;5053648;28;20227;-74
2023/03/24 10:53:47;;;;;;;6.32;2.25;;;17.50;1.00;;;;;;5054812;28;20255;-74
2023/03/24 10:56:35;;;;;;;8.55;3.03;;;16.90;99.90;;;;;;5054769;28;20185;-72
2023/03/24 10:59:01;;;;;;;10.63;2.38;;;16.90;99.90;;;;;;5046643;28;20196;-74
2023/03/24 11:01:33;;;;;;;7.53;2.50;;;17.20;99.90;;;;;;5055052;28;20203;-75
2023/03/24 11:04:03;;;;;;;9.82;2.53;;;17.70;1.00;;;;;;5054797;28;20211;-77
2023/03/24 11:06:30;;;;;;;6.95;2.05;;;17.50;1.00;;;;;;5054720;28;20244;-76
2023/03/24 11:09:28;;;;;;;5.28;2.20;;;17.20;1.00;;;;;;5055011;28;20184;-76
2023/03/24 11:11:57;;;;;;;6.40;2.33;;;17.00;51.30;;;;;;5054519;28;20327;-78
2023/03/24 11:14:26;;;;;;;8.05;2.38;;;16.40;99.90;;;;;;5053881;28;20575;-77
2023/03/24 11:17:14;;;;;;;8.13;2.65;;;16.30;1.00;;;;;;5064215;28;20220;-75
2023/03/24 11:19:51;;;;;;;7.28;2.35;;;16.40;1.00;;;;;;5073652;28;20168;-75
2023/03/24 11:22:17;;;;;;;9.05;2.60;;;15.80;1.00;;;;;;5074237;28;20627;-76
2023/03/24 11:24:46;;;;;;;4.82;2.00;;;15.90;1.00;;;;;;5071890;28;20177;-76
2023/03/24 11:27:15;;;;;;;11.00;2.38;;;16.80;1.00;;;;;;5065857;28;20179;-74
2023/03/24 11:29:41;;;;;;;6.05;2.13;;;17.30;7.20;;;;;;5074170;28;20183;-74
2023/03/24 11:32:21;;;;;;;3.90;2.15;;;17.90;1.00;;;;;;5070051;28;20706;-73
2023/03/24 11:34:51;;;;;;;9.20;2.10;;;18.00;99.90;;;;;;5062655;28;20176;-76
2023/03/24 11:37:21;;;;;;;4.40;2.00;;;18.40;99.90;;;;;;5073554;28;20168;-78
2023/03/24 11:40:12;;;;;;;9.38;2.13;;;18.30;1.00;;;;;;5073975;28;20169;-79
2023/03/24 11:43:19;;;;;;;8.02;2.38;;;18.10;1.00;;;;;;5074458;28;20165;-78
2023/03/24 11:46:06;;;;;;;5.65;2.30;;;17.70;1.00;;;;;;5030910;28;20361;-79
2023/03/24 11:48:47;;;;;;;8.10;2.15;;;18.00;1.00;;;;;;5031176;28;20217;-78
2023/03/24 11:51:24;;;;;;;7.97;2.50;;;18.60;99.90;;;;;;5031971;28;20237;-78
2023/03/24 11:53:52;;;;;;;4.35;1.95;;;18.70;1.00;;;;;;5032417;28;20166;-78
2023/03/24 11:56:31;;;;;;;7.30;2.63;;;18.80;1.00;;;;;;5031259;28;20252;-79
2023/03/24 11:59:07;;;;;;;5.70;2.40;;;18.60;99.90;;;;;;5031920;28;20174;-79
2023/03/24 12:01:38;;;;;;;5.78;2.17;;;18.20;1.00;;;;;;5031869;28;20177;-78
2023/03/24 12:04:19;;;;;;;5.63;2.30;;;18.50;99.90;;;;;;5032115;28;20170;-78
2023/03/24 12:07:15;;;;;;;5.40;2.20;;;19.30;90.50;;;;;;5015296;28;20629;-78
2023/03/24 12:09:49;;;;;;;6.63;2.10;;;18.60;1.00;;;;;;5031811;28;20174;-80
2023/03/24 12:12:52;;;;;;;12.48;2.20;;;17.90;1.00;;;;;;5032052;28;20254;-79
2023/03/24 12:15:48;;;;;;;7.57;2.00;;;17.50;1.00;;;;;;5031976;28;20188;-80
2023/03/24 12:18:36;;;;;;;8.60;2.28;;;17.10;1.00;;;;;;5032217;28;20232;-80
2023/03/24 12:21:30;;;;;;;12.30;3.13;;;16.70;99.90;;;;;;5032592;28;20636;-78
2023/03/24 12:24:06;;;;;;;11.02;2.58;;;16.20;1.00;;;;;;5073201;28;20173;-76
2023/03/24 12:26:33;;;;;;;7.97;2.97;;;15.60;6.30;;;;;;5073602;28;20219;-77
2023/03/24 12:29:28;;;;;;;8.80;2.57;;;15.20;1.20;;;;;;5073663;28;20180;-77
2023/03/24 12:32:06;;;;;;;6.47;2.37;;;15.10;16.50;;;;;;5073472;28;20295;-78
2023/03/24 12:34:41;;;;;;;9.60;2.40;;;15.10;5.80;;;;;;5073635;28;20258;-78
2023/03/24 12:37:34;;;;;;;7.70;2.50;;;15.10;1.00;;;;;;5073976;28;20168;-79
2023/03/24 12:40:21;;;;;;;4.50;2.33;;;15.30;8.00;;;;;;5074548;28;20169;-79
2023/03/24 12:42:54;;;;;;;5.87;2.20;;;15.40;1.00;;;;;;5076424;28;20168;-79
2023/03/24 12:45:40;;;;;;;7.90;2.40;;;15.60;1.00;;;;;;5075236;28;20164;-79
2023/03/24 12:49:01;;;;;;;6.50;2.10;;;15.70;1.00;;;;;;5056498;28;20194;-80
2023/03/24 12:51:45;;;;;;;5.77;2.10;;;15.80;1.00;;;;;;5033465;28;20335;-79
2023/03/24 12:54:37;;;;;;;6.63;2.23;;;15.70;1.00;;;;;;5032421;28;20236;-79
2023/03/24 12:57:14;;;;;;;8.53;2.50;;;15.70;1.00;;;;;;5035636;28;20228;-79
2023/03/24 12:59:45;;;;;;;4.93;2.13;;;15.80;1.00;;;;;;5032672;28;20174;-79
2023/03/24 13:02:16;;;;;;;8.43;1.83;;;15.70;1.00;;;;;;5031419;28;20182;-78
2023/03/24 13:04:45;;;;;;;6.00;2.20;;;15.60;1.00;;;;;;5032891;28;20381;-79
2023/03/24 13:07:16;;;;;;;6.93;1.50;;;15.00;1.00;;;;;;5021171;28;20217;-78
2023/03/24 13:09:58;;;;;;;6.87;1.43;;;14.30;1.00;;;;;;5032416;28;20305;-78
2023/03/24 13:12:27;;;;;;;4.93;1.97;;;13.80;14.80;;;;;;5030704;28;20554;-78
2023/03/24 13:15:09;;;;;;;4.70;2.20;;;13.50;27.70;;;;;;5030918;28;20307;-78